sensor_id;sensor_type;location;lat;lon;timestamp;pressure;altitude;pressure_sealevel;temperature;humidity
65157;BME280;52745;49.794;18.258;2023-05-12T00:01:54;-16266.72;;;12.35;65.41
65157;BME280;52745;49.794;18.258;2023-05-12T00:04:20;-16266.03;;;12.32;65.49
65157;BME280;52745;49.794;18.258;2023-05-12T00:06:47;-16264.41;;;12.26;65.71
65157;BME280;52745;49.794;18.258;2023-05-12T00:09:14;-16262.78;;;12.20;66.11
65157;BME280;52745;49.794;18.258;2023-05-12T00:11:40;-16259.91;;;12.09;66.60
65157;BME280;52745;49.794;18.258;2023-05-12T00:14:07;-16258.53;;;12.04;66.80
65157;BME280;52745;49.794;18.258;2023-05-12T00:16:34;-16255.81;;;11.94;68.13
65157;BME280;52745;49.794;18.258;2023-05-12T00:19:01;-16252.28;;;11.80;68.43
65157;BME280;52745;49.794;18.258;2023-05-12T00:21:27;-16250.09;;;11.72;69.64
65157;BME280;52745;49.794;18.258;2023-05-12T00:23:54;-16247.38;;;11.62;70.80
65157;BME280;52745;49.794;18.258;2023-05-12T00:26:21;-16246.28;;;11.58;69.87
65157;BME280;52745;49.794;18.258;2023-05-12T00:28:47;-16245.19;;;11.54;70.26
65157;BME280;52745;49.794;18.258;2023-05-12T00:31:14;-16245.06;;;11.53;69.06
65157;BME280;52745;49.794;18.258;2023-05-12T00:33:41;-16244.91;;;11.53;68.88
65157;BME280;52745;49.794;18.258;2023-05-12T00:36:08;-16244.38;;;11.51;68.89
65157;BME280;52745;49.794;18.258;2023-05-12T00:38:35;-16243.81;;;11.49;69.17
65157;BME280;52745;49.794;18.258;2023-05-12T00:41:02;-16243.44;;;11.47;69.58
65157;BME280;52745;49.794;18.258;2023-05-12T00:43:30;-16241.66;;;11.41;70.12
65157;BME280;52745;49.794;18.258;2023-05-12T00:45:57;-16239.59;;;11.33;70.83
65157;BME280;52745;49.794;18.258;2023-05-12T00:48:24;-16238.09;;;11.27;70.02
65157;BME280;52745;49.794;18.258;2023-05-12T00:50:51;-16237.56;;;11.25;70.20
65157;BME280;52745;49.794;18.258;2023-05-12T00:53:19;-16236.75;;;11.22;70.52
65157;BME280;52745;49.794;18.258;2023-05-12T00:55:46;-16235.25;;;11.16;70.89
65157;BME280;52745;49.794;18.258;2023-05-12T00:58:13;-16234.28;;;11.13;70.95
65157;BME280;52745;49.794;18.258;2023-05-12T01:00:39;-16233.19;;;11.09;71.15
65157;BME280;52745;49.794;18.258;2023-05-12T01:03:07;-16233.19;;;11.09;70.71
65157;BME280;52745;49.794;18.258;2023-05-12T01:08:40;-16230.75;;;11.00;71.02
65157;BME280;52745;49.794;18.258;2023-05-12T01:11:08;-16229.25;;;10.94;71.65
65157;BME280;52745;49.794;18.258;2023-05-12T01:13:35;-16227.47;;;10.87;72.09
65157;BME280;52745;49.794;18.258;2023-05-12T01:16:06;-16225.44;;;10.80;72.09
65157;BME280;52745;49.794;18.258;2023-05-12T01:18:36;-16224.06;;;10.74;73.01
65157;BME280;52745;49.794;18.258;2023-05-12T01:21:05;-16222.16;;;10.67;73.37
65157;BME280;52745;49.794;18.258;2023-05-12T01:23:39;-16220.53;;;10.61;73.17
65157;BME280;52745;49.794;18.258;2023-05-12T01:26:09;-16218.63;;;10.54;73.83
65157;BME280;52745;49.794;18.258;2023-05-12T01:28:38;-16216.56;;;10.46;73.94
65157;BME280;52745;49.794;18.258;2023-05-12T01:31:07;-16215.22;;;10.41;74.50
65157;BME280;52745;49.794;18.258;2023-05-12T01:33:37;-16213.72;;;10.35;73.66
65157;BME280;52745;49.794;18.258;2023-05-12T01:36:05;-16212.63;;;10.31;72.60
65157;BME280;52745;49.794;18.258;2023-05-12T01:38:33;-16211.94;;;10.29;73.72
65157;BME280;52745;49.794;18.258;2023-05-12T01:40:59;-16211.13;;;10.26;73.95
65157;BME280;52745;49.794;18.258;2023-05-12T01:43:26;-16209.22;;;10.19;75.23
65157;BME280;52745;49.794;18.258;2023-05-12T01:45:53;-16209.06;;;10.18;73.88
65157;BME280;52745;49.794;18.258;2023-05-12T01:48:20;-16208.38;;;10.15;73.15
65157;BME280;52745;49.794;18.258;2023-05-12T01:50:47;-16207.69;;;10.13;72.58
65157;BME280;52745;49.794;18.258;2023-05-12T01:53:18;-16207.28;;;10.11;70.92
65157;BME280;52745;49.794;18.258;2023-05-12T01:55:45;-16207.03;;;10.10;70.51
65157;BME280;52745;49.794;18.258;2023-05-12T01:58:13;-16207.16;;;10.11;69.99
65157;BME280;52745;49.794;18.258;2023-05-12T02:00:40;-16205.25;;;10.04;69.92
65157;BME280;52745;49.794;18.258;2023-05-12T02:03:13;-16205.66;;;10.05;70.68
65157;BME280;52745;49.794;18.258;2023-05-12T02:05:39;-16204.69;;;10.02;71.27
65157;BME280;52745;49.794;18.258;2023-05-12T02:08:07;-16203.19;;;9.96;72.74
65157;BME280;52745;49.794;18.258;2023-05-12T02:10:33;-16200.59;;;9.86;72.82
65157;BME280;52745;49.794;18.258;2023-05-12T02:13:01;-16198.56;;;9.79;72.99
65157;BME280;52745;49.794;18.258;2023-05-12T02:15:29;-16197.34;;;9.74;72.97
65157;BME280;52745;49.794;18.258;2023-05-12T02:17:56;-16196.25;;;9.70;72.68
65157;BME280;52745;49.794;18.258;2023-05-12T02:20:24;-16195.97;;;9.69;72.80
65157;BME280;52745;49.794;18.258;2023-05-12T02:22:51;-16195.44;;;9.67;72.76
65157;BME280;52745;49.794;18.258;2023-05-12T02:25:17;-16194.34;;;9.63;72.67
65157;BME280;52745;49.794;18.258;2023-05-12T02:27:44;-16193.94;;;9.61;73.34
65157;BME280;52745;49.794;18.258;2023-05-12T02:30:11;-16192.44;;;9.56;73.46
65157;BME280;52745;49.794;18.258;2023-05-12T02:32:38;-16191.06;;;9.50;73.67
65157;BME280;52745;49.794;18.258;2023-05-12T02:35:07;-16190.66;;;9.49;74.07
65157;BME280;52745;49.794;18.258;2023-05-12T02:37:37;-16189.56;;;9.45;74.18
65157;BME280;52745;49.794;18.258;2023-05-12T02:40:05;-16188.59;;;9.41;74.05
65157;BME280;52745;49.794;18.258;2023-05-12T02:42:33;-16186.56;;;9.33;74.58
65157;BME280;52745;49.794;18.258;2023-05-12T02:45:01;-16185.47;;;9.29;75.22
65157;BME280;52745;49.794;18.258;2023-05-12T02:47:29;-16184.09;;;9.24;74.95
65157;BME280;52745;49.794;18.258;2023-05-12T02:49:58;-16184.09;;;9.24;74.51
65157;BME280;52745;49.794;18.258;2023-05-12T02:52:24;-16183.28;;;9.21;74.84
65157;BME280;52745;49.794;18.258;2023-05-12T02:54:51;-16183.28;;;9.21;74.49
65157;BME280;52745;49.794;18.258;2023-05-12T02:57:18;-16182.75;;;9.19;74.80
65157;BME280;52745;49.794;18.258;2023-05-12T02:59:45;-16181.66;;;9.15;74.73
65157;BME280;52745;49.794;18.258;2023-05-12T03:02:12;-16181.50;;;9.15;75.03
65157;BME280;52745;49.794;18.258;2023-05-12T03:04:38;-16180.16;;;9.09;75.14
65157;BME280;52745;49.794;18.258;2023-05-12T03:07:05;-16179.19;;;9.06;76.35
65157;BME280;52745;49.794;18.258;2023-05-12T03:09:33;-16177.56;;;9.00;76.27
65157;BME280;52745;49.794;18.258;2023-05-12T03:12:00;-16176.75;;;8.97;75.93
65157;BME280;52745;49.794;18.258;2023-05-12T03:14:26;-16174.97;;;8.90;77.11
65157;BME280;52745;49.794;18.258;2023-05-12T03:16:54;-16174.56;;;8.88;77.51
65157;BME280;52745;49.794;18.258;2023-05-12T03:19:21;-16174.00;;;8.86;77.44
65157;BME280;52745;49.794;18.258;2023-05-12T03:21:47;-16173.47;;;8.84;78.34
65157;BME280;52745;49.794;18.258;2023-05-12T03:24:14;-16173.19;;;8.83;78.90
65157;BME280;52745;49.794;18.258;2023-05-12T03:26:41;-16172.91;;;8.82;78.19
65157;BME280;52745;49.794;18.258;2023-05-12T03:29:08;-16172.09;;;8.79;79.53
65157;BME280;52745;49.794;18.258;2023-05-12T03:31:35;-16171.41;;;8.77;79.08
65157;BME280;52745;49.794;18.258;2023-05-12T03:34:02;-16171.28;;;8.76;79.05
65157;BME280;52745;49.794;18.258;2023-05-12T03:36:29;-16170.47;;;8.73;79.06
65157;BME280;52745;49.794;18.258;2023-05-12T03:38:56;-16170.72;;;8.74;79.12
65157;BME280;52745;49.794;18.258;2023-05-12T03:41:23;-16170.72;;;8.74;79.13
65157;BME280;52745;49.794;18.258;2023-05-12T03:43:49;-16171.00;;;8.75;79.41
65157;BME280;52745;49.794;18.258;2023-05-12T03:46:16;-16171.56;;;8.77;80.13
65157;BME280;52745;49.794;18.258;2023-05-12T03:48:43;-16171.97;;;8.79;80.51
65157;BME280;52745;49.794;18.258;2023-05-12T03:51:10;-16172.66;;;8.81;80.83
65157;BME280;52745;49.794;18.258;2023-05-12T03:53:36;-16172.38;;;8.80;81.72
65157;BME280;52745;49.794;18.258;2023-05-12T03:56:05;-16171.81;;;8.78;81.07
65157;BME280;52745;49.794;18.258;2023-05-12T03:58:32;-16171.81;;;8.78;80.56
65157;BME280;52745;49.794;18.258;2023-05-12T04:00:59;-16171.41;;;8.77;80.31
65157;BME280;52745;49.794;18.258;2023-05-12T04:03:27;-16173.31;;;8.84;80.02
65157;BME280;52745;49.794;18.258;2023-05-12T04:05:58;-16174.28;;;8.87;79.81
65157;BME280;52745;49.794;18.258;2023-05-12T04:08:25;-16175.09;;;8.90;80.03
65157;BME280;52745;49.794;18.258;2023-05-12T04:10:56;-16176.59;;;8.96;78.77
65157;BME280;52745;49.794;18.258;2023-05-12T04:13:24;-16177.41;;;8.99;78.42
65157;BME280;52745;49.794;18.258;2023-05-12T04:15:54;-16178.38;;;9.03;78.60
65157;BME280;52745;49.794;18.258;2023-05-12T04:18:24;-16180.41;;;9.10;78.30
65157;BME280;52745;49.794;18.258;2023-05-12T04:20:53;-16181.91;;;9.16;77.45
65157;BME280;52745;49.794;18.258;2023-05-12T04:23:20;-16182.75;;;9.19;76.83
65157;BME280;52745;49.794;18.258;2023-05-12T04:25:47;-16184.25;;;9.25;76.57
65157;BME280;52745;49.794;18.258;2023-05-12T04:28:14;-16186.56;;;9.33;76.90
65157;BME280;52745;49.794;18.258;2023-05-12T04:30:41;-16188.47;;;9.41;76.18
65157;BME280;52745;49.794;18.258;2023-05-12T04:33:08;-16189.16;;;9.43;76.15
65157;BME280;52745;49.794;18.258;2023-05-12T04:35:36;-16188.59;;;9.41;76.31
65157;BME280;52745;49.794;18.258;2023-05-12T04:38:04;-16188.75;;;9.42;76.99
65157;BME280;52745;49.794;18.258;2023-05-12T04:40:31;-16190.66;;;9.49;76.47
65157;BME280;52745;49.794;18.258;2023-05-12T04:42:57;-16192.44;;;9.56;75.51
65157;BME280;52745;49.794;18.258;2023-05-12T04:45:25;-16193.38;;;9.59;75.75
65157;BME280;52745;49.794;18.258;2023-05-12T04:47:52;-16196.09;;;9.69;75.83
65157;BME280;52745;49.794;18.258;2023-05-12T04:50:19;-16196.78;;;9.72;76.23
65157;BME280;52745;49.794;18.258;2023-05-12T04:52:46;-16198.44;;;9.78;75.39
65157;BME280;52745;49.794;18.258;2023-05-12T04:55:13;-16199.53;;;9.82;75.38
65157;BME280;52745;49.794;18.258;2023-05-12T04:57:40;-16202.25;;;9.92;75.64
65157;BME280;52745;49.794;18.258;2023-05-12T05:00:08;-16203.75;;;9.98;74.54
65157;BME280;52745;49.794;18.258;2023-05-12T05:02:35;-16204.56;;;10.01;74.62
65157;BME280;52745;49.794;18.258;2023-05-12T05:05:03;-16205.94;;;10.06;74.63
65157;BME280;52745;49.794;18.258;2023-05-12T05:07:30;-16207.28;;;10.11;73.69
65157;BME280;52745;49.794;18.258;2023-05-12T05:09:58;-16208.66;;;10.17;73.97
65157;BME280;52745;49.794;18.258;2023-05-12T05:12:25;-16209.22;;;10.19;74.60
65157;BME280;52745;49.794;18.258;2023-05-12T05:14:52;-16211.66;;;10.28;74.19
65157;BME280;52745;49.794;18.258;2023-05-12T05:17:19;-16214.38;;;10.38;73.71
65157;BME280;52745;49.794;18.258;2023-05-12T05:19:46;-16214.38;;;10.38;73.72
65157;BME280;52745;49.794;18.258;2023-05-12T05:22:12;-16218.63;;;10.54;73.04
65157;BME280;52745;49.794;18.258;2023-05-12T05:24:39;-16220.66;;;10.62;71.89
65157;BME280;52745;49.794;18.258;2023-05-12T05:27:05;-16222.56;;;10.69;72.99
65157;BME280;52745;49.794;18.258;2023-05-12T05:29:32;-16224.06;;;10.74;71.32
65157;BME280;52745;49.794;18.258;2023-05-12T05:31:59;-16226.38;;;10.83;72.00
65157;BME280;52745;49.794;18.258;2023-05-12T05:34:26;-16228.84;;;10.92;72.61
65157;BME280;52745;49.794;18.258;2023-05-12T05:36:52;-16229.94;;;10.96;71.76
65157;BME280;52745;49.794;18.258;2023-05-12T05:39:20;-16231.28;;;11.02;71.10
65157;BME280;52745;49.794;18.258;2023-05-12T05:41:47;-16233.19;;;11.09;72.40
65157;BME280;52745;49.794;18.258;2023-05-12T05:44:14;-16231.56;;;11.03;70.98
65157;BME280;52745;49.794;18.258;2023-05-12T05:46:41;-16233.75;;;11.11;70.83
65157;BME280;52745;49.794;18.258;2023-05-12T05:49:08;-16236.47;;;11.21;70.81
65157;BME280;52745;49.794;18.258;2023-05-12T05:51:36;-16239.59;;;11.33;69.50
65157;BME280;52745;49.794;18.258;2023-05-12T05:54:03;-16240.00;;;11.34;69.94
65157;BME280;52745;49.794;18.258;2023-05-12T05:56:30;-16243.56;;;11.48;71.22
65157;BME280;52745;49.794;18.258;2023-05-12T05:58:58;-16245.47;;;11.55;69.28
65157;BME280;52745;49.794;18.258;2023-05-12T06:01:30;-16247.78;;;11.64;69.93
65157;BME280;52745;49.794;18.258;2023-05-12T06:03:57;-16244.50;;;11.51;68.50
65157;BME280;52745;49.794;18.258;2023-05-12T06:06:24;-16242.47;;;11.44;68.57
65157;BME280;52745;49.794;18.258;2023-05-12T06:08:50;-16243.69;;;11.48;67.75
65157;BME280;52745;49.794;18.258;2023-05-12T06:11:17;-16249.97;;;11.72;69.24
65157;BME280;52745;49.794;18.258;2023-05-12T06:13:44;-16254.47;;;11.89;69.72
65157;BME280;52745;49.794;18.258;2023-05-12T06:16:10;-16260.03;;;12.10;68.73
65157;BME280;52745;49.794;18.258;2023-05-12T06:18:37;-16262.22;;;12.18;68.51
65157;BME280;52745;49.794;18.258;2023-05-12T06:21:04;-16266.44;;;12.34;67.73
65157;BME280;52745;49.794;18.258;2023-05-12T06:23:31;-16272.03;;;12.55;65.18
65157;BME280;52745;49.794;18.258;2023-05-12T06:25:58;-16276.38;;;12.71;64.86
65157;BME280;52745;49.794;18.258;2023-05-12T06:28:27;-16281.56;;;12.91;64.36
65157;BME280;52745;49.794;18.258;2023-05-12T06:30:54;-16284.41;;;13.01;65.57
65157;BME280;52745;49.794;18.258;2023-05-12T06:33:21;-16284.69;;;13.02;61.85
65157;BME280;52745;49.794;18.258;2023-05-12T06:35:47;-16287.56;;;13.13;62.71
65157;BME280;52745;49.794;18.258;2023-05-12T06:38:14;-16294.38;;;13.39;63.60
65157;BME280;52745;49.794;18.258;2023-05-12T06:40:43;-16301.84;;;13.67;61.35
65157;BME280;52745;49.794;18.258;2023-05-12T06:43:09;-16307.56;;;13.89;61.33
65157;BME280;52745;49.794;18.258;2023-05-12T06:45:36;-16309.19;;;13.95;60.33
65157;BME280;52745;49.794;18.258;2023-05-12T06:48:03;-16309.19;;;13.95;59.67
65157;BME280;52745;49.794;18.258;2023-05-12T06:50:32;-16310.00;;;13.98;60.18
65157;BME280;52745;49.794;18.258;2023-05-12T06:52:58;-16318.31;;;14.29;60.58
65157;BME280;52745;49.794;18.258;2023-05-12T06:55:25;-16323.63;;;14.49;58.13
65157;BME280;52745;49.794;18.258;2023-05-12T06:57:52;-16326.75;;;14.61;58.30
65157;BME280;52745;49.794;18.258;2023-05-12T07:00:22;-16327.84;;;14.65;58.46
65157;BME280;52745;49.794;18.258;2023-05-12T07:02:49;-16331.09;;;14.77;59.43
65157;BME280;52745;49.794;18.258;2023-05-12T07:05:16;-16338.03;;;15.03;57.30
65157;BME280;52745;49.794;18.258;2023-05-12T07:07:44;-16347.16;;;15.38;56.53
65157;BME280;52745;49.794;18.258;2023-05-12T07:10:10;-16343.88;;;15.25;57.06
65157;BME280;52745;49.794;18.258;2023-05-12T07:12:37;-16344.03;;;15.26;58.63
65157;BME280;52745;49.794;18.258;2023-05-12T07:15:05;-16344.41;;;15.27;57.94
65157;BME280;52745;49.794;18.258;2023-05-12T07:17:31;-16349.72;;;15.47;55.09
65157;BME280;52745;49.794;18.258;2023-05-12T07:19:58;-16355.16;;;15.68;54.44
65157;BME280;52745;49.794;18.258;2023-05-12T07:22:26;-16359.25;;;15.83;54.89
65157;BME280;52745;49.794;18.258;2023-05-12T07:24:52;-16354.63;;;15.66;54.30
65157;BME280;52745;49.794;18.258;2023-05-12T07:27:19;-16357.75;;;15.78;53.65
65157;BME280;52745;49.794;18.258;2023-05-12T07:29:46;-16386.81;;;16.87;51.25
65157;BME280;52745;49.794;18.258;2023-05-12T07:32:12;-16439.47;;;18.86;44.77
65157;BME280;52745;49.794;18.258;2023-05-12T07:34:39;-16451.00;;;19.30;42.65
65157;BME280;52745;49.794;18.258;2023-05-12T07:37:06;-16481.78;;;20.46;39.64
65157;BME280;52745;49.794;18.258;2023-05-12T07:39:32;-16491.94;;;20.84;39.07
65157;BME280;52745;49.794;18.258;2023-05-12T07:41:59;-16500.31;;;21.16;38.29
65157;BME280;52745;49.794;18.258;2023-05-12T07:44:26;-16517.13;;;21.80;37.22
65157;BME280;52745;49.794;18.258;2023-05-12T07:46:53;-16488.94;;;20.73;37.40
65157;BME280;52745;49.794;18.258;2023-05-12T07:49:20;-16527.00;;;22.17;35.71
65157;BME280;52745;49.794;18.258;2023-05-12T07:51:48;-16524.56;;;22.08;35.38
65157;BME280;52745;49.794;18.258;2023-05-12T07:54:15;-16550.41;;;23.06;35.96
65157;BME280;52745;49.794;18.258;2023-05-12T07:56:42;-16566.88;;;23.68;33.16
65157;BME280;52745;49.794;18.258;2023-05-12T07:59:08;-16566.19;;;23.66;33.39
65157;BME280;52745;49.794;18.258;2023-05-12T08:01:36;-16607.41;;;25.22;32.05
65157;BME280;52745;49.794;18.258;2023-05-12T08:04:02;-16609.00;;;25.28;31.37
65157;BME280;52745;49.794;18.258;2023-05-12T08:06:29;-16603.88;;;25.09;29.84
65157;BME280;52745;49.794;18.258;2023-05-12T08:08:56;-16610.09;;;25.32;28.87
65157;BME280;52745;49.794;18.258;2023-05-12T08:11:24;-16617.53;;;25.60;30.05
65157;BME280;52745;49.794;18.258;2023-05-12T08:13:52;-16635.47;;;26.29;28.40
65157;BME280;52745;49.794;18.258;2023-05-12T08:16:19;-16659.19;;;27.19;27.64
65157;BME280;52745;49.794;18.258;2023-05-12T08:18:45;-16681.13;;;28.02;26.16
65157;BME280;52745;49.794;18.258;2023-05-12T08:21:12;-16689.88;;;28.36;24.80
65157;BME280;52745;49.794;18.258;2023-05-12T08:23:39;-16696.75;;;28.62;24.68
65157;BME280;52745;49.794;18.258;2023-05-12T08:26:06;-16708.19;;;29.05;24.74
65157;BME280;52745;49.794;18.258;2023-05-12T08:28:33;-16674.53;;;27.77;26.69
65157;BME280;52745;49.794;18.258;2023-05-12T08:31:00;-16630.75;;;26.11;28.43
65157;BME280;52745;49.794;18.258;2023-05-12T08:33:27;-16654.59;;;27.01;28.05
65157;BME280;52745;49.794;18.258;2023-05-12T08:35:54;-16673.47;;;27.73;26.81
65157;BME280;52745;49.794;18.258;2023-05-12T08:38:20;-16678.31;;;27.92;27.42
65157;BME280;52745;49.794;18.258;2023-05-12T08:41:10;-16669.16;;;27.57;26.92
65157;BME280;52745;49.794;18.258;2023-05-12T08:43:42;-16647.31;;;26.74;26.18
65157;BME280;52745;49.794;18.258;2023-05-12T08:46:11;-16619.00;;;25.66;28.44
65157;BME280;52745;49.794;18.258;2023-05-12T08:48:39;-16617.13;;;25.59;27.85
65157;BME280;52745;49.794;18.258;2023-05-12T08:51:07;-16648.41;;;26.78;27.59
65157;BME280;52745;49.794;18.258;2023-05-12T08:53:38;-16672.25;;;27.69;27.43
65157;BME280;52745;49.794;18.258;2023-05-12T08:56:08;-16709.28;;;29.09;26.34
65157;BME280;52745;49.794;18.258;2023-05-12T08:58:36;-16718.94;;;29.46;23.29
65157;BME280;52745;49.794;18.258;2023-05-12T09:01:05;-16710.47;;;29.14;23.98
65157;BME280;52745;49.794;18.258;2023-05-12T09:03:33;-16687.88;;;28.28;23.99
65157;BME280;52745;49.794;18.258;2023-05-12T09:06:00;-16650.28;;;26.85;27.99
65157;BME280;52745;49.794;18.258;2023-05-12T09:08:29;-16593.22;;;24.68;30.88
65157;BME280;52745;49.794;18.258;2023-05-12T09:11:00;-16586.75;;;24.44;29.52
65157;BME280;52745;49.794;18.258;2023-05-12T09:16:01;-16664.44;;;27.39;27.27
65157;BME280;52745;49.794;18.258;2023-05-12T09:18:44;-16628.19;;;26.01;29.74
65157;BME280;52745;49.794;18.258;2023-05-12T09:21:13;-16614.28;;;25.48;29.07
65157;BME280;52745;49.794;18.258;2023-05-12T09:23:39;-16590.94;;;24.60;31.20
65157;BME280;52745;49.794;18.258;2023-05-12T09:26:06;-16578.50;;;24.12;30.41
65157;BME280;52745;49.794;18.258;2023-05-12T09:28:36;-16553.50;;;23.18;32.52
65157;BME280;52745;49.794;18.258;2023-05-12T09:31:23;-16539.31;;;22.64;34.95
65157;BME280;52745;49.794;18.258;2023-05-12T09:33:50;-16543.34;;;22.79;34.25
65157;BME280;52745;49.794;18.258;2023-05-12T09:36:21;-16581.75;;;24.25;31.45
65157;BME280;52745;49.794;18.258;2023-05-12T09:39:04;-16534.97;;;22.47;34.40
65157;BME280;52745;49.794;18.258;2023-05-12T09:41:39;-16516.56;;;21.78;34.74
65157;BME280;52745;49.794;18.258;2023-05-12T09:44:07;-16505.19;;;21.35;37.03
65157;BME280;52745;49.794;18.258;2023-05-12T09:46:35;-16490.72;;;20.80;35.61
65157;BME280;52745;49.794;18.258;2023-05-12T09:49:02;-16486.09;;;20.62;37.64
65157;BME280;52745;49.794;18.258;2023-05-12T09:51:29;-16490.59;;;20.79;37.80
65157;BME280;52745;49.794;18.258;2023-05-12T09:53:58;-16493.28;;;20.90;37.12
65157;BME280;52745;49.794;18.258;2023-05-12T09:56:27;-16502.63;;;21.25;38.19
65157;BME280;52745;49.794;18.258;2023-05-12T09:58:55;-16506.56;;;21.40;35.83
65157;BME280;52745;49.794;18.258;2023-05-12T10:01:23;-16512.66;;;21.63;35.20
65157;BME280;52745;49.794;18.258;2023-05-12T10:03:55;-16510.34;;;21.54;36.30
65157;BME280;52745;49.794;18.258;2023-05-12T10:06:35;-16503.44;;;21.28;37.47
65157;BME280;52745;49.794;18.258;2023-05-12T10:11:45;-16487.31;;;20.67;39.56
65157;BME280;52745;49.794;18.258;2023-05-12T10:14:12;-16483.81;;;20.54;39.69
65157;BME280;52745;49.794;18.258;2023-05-12T10:16:40;-16474.59;;;20.19;38.88
65157;BME280;52745;49.794;18.258;2023-05-12T10:19:07;-16471.59;;;20.08;40.76
65157;BME280;52745;49.794;18.258;2023-05-12T10:21:35;-16473.91;;;20.16;39.90
65157;BME280;52745;49.794;18.258;2023-05-12T10:24:02;-16473.78;;;20.16;40.10
65157;BME280;52745;49.794;18.258;2023-05-12T10:26:32;-16483.00;;;20.51;39.29
65157;BME280;52745;49.794;18.258;2023-05-12T10:29:02;-16488.16;;;20.70;40.28
65157;BME280;52745;49.794;18.258;2023-05-12T10:31:29;-16490.72;;;20.80;39.31
65157;BME280;52745;49.794;18.258;2023-05-12T10:34:00;-16493.44;;;20.90;39.89
65157;BME280;52745;49.794;18.258;2023-05-12T10:36:27;-16495.19;;;20.97;38.42
65157;BME280;52745;49.794;18.258;2023-05-12T10:38:54;-16491.94;;;20.84;39.41
65157;BME280;52745;49.794;18.258;2023-05-12T10:41:33;-16489.50;;;20.75;38.17
65157;BME280;52745;49.794;18.258;2023-05-12T10:44:00;-16480.97;;;20.43;39.28
65157;BME280;52745;49.794;18.258;2023-05-12T10:46:27;-16476.75;;;20.27;41.26
65157;BME280;52745;49.794;18.258;2023-05-12T10:49:01;-16470.81;;;20.04;42.78
65157;BME280;52745;49.794;18.258;2023-05-12T10:54:22;-16466.06;;;19.87;43.86
65157;BME280;52745;49.794;18.258;2023-05-12T10:56:51;-16463.63;;;19.77;42.98
65157;BME280;52745;49.794;18.258;2023-05-12T10:59:20;-16468.91;;;19.97;41.44
65157;BME280;52745;49.794;18.258;2023-05-12T11:02:16;-16464.84;;;19.82;42.24
65157;BME280;52745;49.794;18.258;2023-05-12T11:04:51;-16460.50;;;19.65;45.45
65157;BME280;52745;49.794;18.258;2023-05-12T11:07:21;-16461.59;;;19.70;43.09
65157;BME280;52745;49.794;18.258;2023-05-12T11:09:48;-16460.91;;;19.67;43.81
65157;BME280;52745;49.794;18.258;2023-05-12T11:12:16;-16461.72;;;19.70;45.15
65157;BME280;52745;49.794;18.258;2023-05-12T11:14:43;-16459.94;;;19.63;44.00
65157;BME280;52745;49.794;18.258;2023-05-12T11:17:11;-16459.94;;;19.63;43.43
65157;BME280;52745;49.794;18.258;2023-05-12T11:19:38;-16461.31;;;19.69;41.54
65157;BME280;52745;49.794;18.258;2023-05-12T11:22:07;-16467.94;;;19.94;41.04
65157;BME280;52745;49.794;18.258;2023-05-12T11:24:39;-16463.88;;;19.78;41.16
65157;BME280;52745;49.794;18.258;2023-05-12T11:27:11;-16474.59;;;20.19;41.73
65157;BME280;52745;49.794;18.258;2023-05-12T11:29:39;-16487.31;;;20.67;41.05
65157;BME280;52745;49.794;18.258;2023-05-12T11:32:10;-16503.31;;;21.27;38.82
65157;BME280;52745;49.794;18.258;2023-05-12T11:34:40;-16515.63;;;21.74;42.38
65157;BME280;52745;49.794;18.258;2023-05-12T11:37:08;-16512.91;;;21.64;39.82
65157;BME280;52745;49.794;18.258;2023-05-12T11:39:35;-16501.69;;;21.21;40.31
65157;BME280;52745;49.794;18.258;2023-05-12T11:42:03;-16491.38;;;20.82;39.52
65157;BME280;52745;49.794;18.258;2023-05-12T11:44:31;-16487.19;;;20.66;39.09
65157;BME280;52745;49.794;18.258;2023-05-12T11:47:00;-16479.34;;;20.37;40.07
65157;BME280;52745;49.794;18.258;2023-05-12T11:49:28;-16477.44;;;20.30;39.73
65157;BME280;52745;49.794;18.258;2023-05-12T11:51:58;-16473.38;;;20.14;40.52
65157;BME280;52745;49.794;18.258;2023-05-12T11:54:27;-16459.94;;;19.63;43.01
65157;BME280;52745;49.794;18.258;2023-05-12T11:56:55;-16460.91;;;19.67;40.57
65157;BME280;52745;49.794;18.258;2023-05-12T11:59:31;-16463.22;;;19.76;40.96
65157;BME280;52745;49.794;18.258;2023-05-12T12:02:01;-16465.38;;;19.84;41.37
65157;BME280;52745;49.794;18.258;2023-05-12T12:04:36;-16469.44;;;19.99;42.97
65157;BME280;52745;49.794;18.258;2023-05-12T12:07:07;-16473.78;;;20.16;42.55
65157;BME280;52745;49.794;18.258;2023-05-12T12:09:38;-16477.97;;;20.32;41.82
65157;BME280;52745;49.794;18.258;2023-05-12T12:12:07;-16482.72;;;20.50;40.92
65157;BME280;52745;49.794;18.258;2023-05-12T12:14:35;-16485.31;;;20.59;41.03
65157;BME280;52745;49.794;18.258;2023-05-12T12:17:04;-16486.91;;;20.65;41.37
65157;BME280;52745;49.794;18.258;2023-05-12T12:19:30;-16487.47;;;20.67;39.14
65157;BME280;52745;49.794;18.258;2023-05-12T12:21:57;-16486.25;;;20.63;36.69
65157;BME280;52745;49.794;18.258;2023-05-12T12:24:24;-16481.63;;;20.45;38.26
65157;BME280;52745;49.794;18.258;2023-05-12T12:26:51;-16475.69;;;20.23;36.83
65157;BME280;52745;49.794;18.258;2023-05-12T12:29:18;-16467.16;;;19.91;38.20
65157;BME280;52745;49.794;18.258;2023-05-12T12:31:44;-16463.22;;;19.76;38.96
65157;BME280;52745;49.794;18.258;2023-05-12T12:34:11;-16458.72;;;19.59;39.82
65157;BME280;52745;49.794;18.258;2023-05-12T12:36:38;-16455.22;;;19.46;39.80
65157;BME280;52745;49.794;18.258;2023-05-12T12:39:04;-16448.03;;;19.18;39.77
65157;BME280;52745;49.794;18.258;2023-05-12T12:41:31;-16446.66;;;19.13;39.08
65157;BME280;52745;49.794;18.258;2023-05-12T12:43:58;-16443.00;;;18.99;40.50
65157;BME280;52745;49.794;18.258;2023-05-12T12:46:25;-16440.56;;;18.90;38.91
65157;BME280;52745;49.794;18.258;2023-05-12T12:48:52;-16436.91;;;18.76;39.61
65157;BME280;52745;49.794;18.258;2023-05-12T12:51:19;-16435.81;;;18.72;38.90
65157;BME280;52745;49.794;18.258;2023-05-12T12:53:46;-16435.53;;;18.71;40.37
65157;BME280;52745;49.794;18.258;2023-05-12T12:56:13;-16437.31;;;18.78;39.47
65157;BME280;52745;49.794;18.258;2023-05-12T12:58:39;-16434.59;;;18.68;37.73